sensor_id;sensor_type;location;lat;lon;timestamp;temperature;humidity
6355;DHT22;3210;48.708;9.030;2023-02-26T00:00:44;-0.50;1.00
6355;DHT22;3210;48.708;9.030;2023-02-26T00:03:11;-0.50;1.00
6355;DHT22;3210;48.708;9.030;2023-02-26T00:05:37;-0.50;1.00
6355;DHT22;3210;48.708;9.030;2023-02-26T00:08:04;-0.50;1.00
6355;DHT22;3210;48.708;9.030;2023-02-26T00:10:31;-0.60;1.00
6355;DHT22;3210;48.708;9.030;2023-02-26T00:12:58;-0.70;1.00
6355;DHT22;3210;48.708;9.030;2023-02-26T00:15:27;-0.70;1.00
6355;DHT22;3210;48.708;9.030;2023-02-26T00:18:00;-0.70;1.00
6355;DHT22;3210;48.708;9.030;2023-02-26T00:20:28;-0.80;1.00
6355;DHT22;3210;48.708;9.030;2023-02-26T00:22:55;-0.70;1.00
6355;DHT22;3210;48.708;9.030;2023-02-26T00:25:22;-0.70;1.00
6355;DHT22;3210;48.708;9.030;2023-02-26T00:27:49;-0.70;1.00
6355;DHT22;3210;48.708;9.030;2023-02-26T00:30:17;-0.80;1.00
6355;DHT22;3210;48.708;9.030;2023-02-26T00:32:46;-0.80;1.00
6355;DHT22;3210;48.708;9.030;2023-02-26T00:35:15;-0.80;1.00
6355;DHT22;3210;48.708;9.030;2023-02-26T00:37:54;-0.70;1.00
6355;DHT22;3210;48.708;9.030;2023-02-26T00:40:32;-0.70;1.00
6355;DHT22;3210;48.708;9.030;2023-02-26T00:43:01;-0.70;1.00
6355;DHT22;3210;48.708;9.030;2023-02-26T00:45:29;-0.60;1.00
6355;DHT22;3210;48.708;9.030;2023-02-26T00:48:11;-0.70;1.00
6355;DHT22;3210;48.708;9.030;2023-02-26T00:50:47;-0.80;1.00
6355;DHT22;3210;48.708;9.030;2023-02-26T00:53:23;-0.90;1.00
6355;DHT22;3210;48.708;9.030;2023-02-26T00:55:51;-1.00;1.00
6355;DHT22;3210;48.708;9.030;2023-02-26T00:58:17;-0.90;1.00
6355;DHT22;3210;48.708;9.030;2023-02-26T01:00:44;-1.00;1.00
6355;DHT22;3210;48.708;9.030;2023-02-26T01:03:13;-0.90;1.00
6355;DHT22;3210;48.708;9.030;2023-02-26T01:05:40;-1.10;1.00
6355;DHT22;3210;48.708;9.030;2023-02-26T01:08:11;-1.20;1.00
6355;DHT22;3210;48.708;9.030;2023-02-26T01:10:40;-1.20;1.00
6355;DHT22;3210;48.708;9.030;2023-02-26T01:13:07;-1.20;1.00
6355;DHT22;3210;48.708;9.030;2023-02-26T01:15:34;-1.30;1.00
6355;DHT22;3210;48.708;9.030;2023-02-26T01:18:05;-1.10;1.00
6355;DHT22;3210;48.708;9.030;2023-02-26T01:20:41;-1.20;1.00
6355;DHT22;3210;48.708;9.030;2023-02-26T01:23:13;-1.30;1.00
6355;DHT22;3210;48.708;9.030;2023-02-26T01:25:43;-1.10;1.00
6355;DHT22;3210;48.708;9.030;2023-02-26T01:28:11;-1.30;1.00
6355;DHT22;3210;48.708;9.030;2023-02-26T01:30:39;-1.40;1.00
6355;DHT22;3210;48.708;9.030;2023-02-26T01:33:09;-1.40;1.00
6355;DHT22;3210;48.708;9.030;2023-02-26T01:35:44;-1.40;1.00
6355;DHT22;3210;48.708;9.030;2023-02-26T01:38:23;-1.30;1.00
6355;DHT22;3210;48.708;9.030;2023-02-26T01:41:23;-1.20;1.00
6355;DHT22;3210;48.708;9.030;2023-02-26T01:43:59;-1.20;1.00
6355;DHT22;3210;48.708;9.030;2023-02-26T01:46:33;-1.30;1.00
6355;DHT22;3210;48.708;9.030;2023-02-26T01:49:03;-1.30;1.00
6355;DHT22;3210;48.708;9.030;2023-02-26T01:51:47;-1.30;1.00
6355;DHT22;3210;48.708;9.030;2023-02-26T01:54:16;-1.60;1.00
6355;DHT22;3210;48.708;9.030;2023-02-26T01:56:44;-1.60;1.00
6355;DHT22;3210;48.708;9.030;2023-02-26T01:59:14;-1.50;1.00
6355;DHT22;3210;48.708;9.030;2023-02-26T02:01:42;-1.80;1.00
6355;DHT22;3210;48.708;9.030;2023-02-26T02:04:12;-1.80;1.00
6355;DHT22;3210;48.708;9.030;2023-02-26T02:06:40;-1.90;1.00
6355;DHT22;3210;48.708;9.030;2023-02-26T02:09:09;-1.80;1.00
6355;DHT22;3210;48.708;9.030;2023-02-26T02:11:42;-1.80;1.00
6355;DHT22;3210;48.708;9.030;2023-02-26T02:14:17;-1.80;1.00
6355;DHT22;3210;48.708;9.030;2023-02-26T02:16:54;-1.80;1.00
6355;DHT22;3210;48.708;9.030;2023-02-26T02:19:42;-1.90;1.00
6355;DHT22;3210;48.708;9.030;2023-02-26T02:22:27;-1.80;1.00
6355;DHT22;3210;48.708;9.030;2023-02-26T02:25:10;-1.80;1.00
6355;DHT22;3210;48.708;9.030;2023-02-26T02:27:43;-1.90;1.00
6355;DHT22;3210;48.708;9.030;2023-02-26T02:30:26;-1.90;1.00
6355;DHT22;3210;48.708;9.030;2023-02-26T02:32:58;-1.90;1.00
6355;DHT22;3210;48.708;9.030;2023-02-26T02:35:28;-1.90;1.00
6355;DHT22;3210;48.708;9.030;2023-02-26T02:38:03;-1.90;1.00
6355;DHT22;3210;48.708;9.030;2023-02-26T02:40:33;-2.00;1.00
6355;DHT22;3210;48.708;9.030;2023-02-26T02:43:03;-2.00;1.00
6355;DHT22;3210;48.708;9.030;2023-02-26T02:45:42;-2.10;1.00
6355;DHT22;3210;48.708;9.030;2023-02-26T02:48:15;-2.10;1.00
6355;DHT22;3210;48.708;9.030;2023-02-26T02:50:46;-2.10;1.00
6355;DHT22;3210;48.708;9.030;2023-02-26T02:53:17;-2.10;1.00
6355;DHT22;3210;48.708;9.030;2023-02-26T02:55:49;-2.20;1.00
6355;DHT22;3210;48.708;9.030;2023-02-26T02:58:18;-2.10;1.00
6355;DHT22;3210;48.708;9.030;2023-02-26T03:00:48;-2.20;1.00
6355;DHT22;3210;48.708;9.030;2023-02-26T03:03:21;-2.30;1.00
6355;DHT22;3210;48.708;9.030;2023-02-26T03:05:50;-2.20;1.00
6355;DHT22;3210;48.708;9.030;2023-02-26T03:08:21;-2.30;1.00
6355;DHT22;3210;48.708;9.030;2023-02-26T03:10:48;-2.20;1.00
6355;DHT22;3210;48.708;9.030;2023-02-26T03:13:16;-2.10;1.00
6355;DHT22;3210;48.708;9.030;2023-02-26T03:15:54;-2.20;1.00
6355;DHT22;3210;48.708;9.030;2023-02-26T03:18:34;-1.90;1.00
6355;DHT22;3210;48.708;9.030;2023-02-26T03:21:07;-1.90;1.00
6355;DHT22;3210;48.708;9.030;2023-02-26T03:23:39;-2.00;1.00
6355;DHT22;3210;48.708;9.030;2023-02-26T03:26:10;-2.20;1.00
6355;DHT22;3210;48.708;9.030;2023-02-26T03:28:42;-2.40;1.00
6355;DHT22;3210;48.708;9.030;2023-02-26T03:31:14;-2.20;1.00
6355;DHT22;3210;48.708;9.030;2023-02-26T03:33:49;-2.10;1.00
6355;DHT22;3210;48.708;9.030;2023-02-26T03:36:22;-2.20;1.00
6355;DHT22;3210;48.708;9.030;2023-02-26T03:38:55;-2.20;1.00
6355;DHT22;3210;48.708;9.030;2023-02-26T03:41:28;-2.40;1.00
6355;DHT22;3210;48.708;9.030;2023-02-26T03:43:59;-2.20;1.00
6355;DHT22;3210;48.708;9.030;2023-02-26T03:46:31;-2.20;1.00
6355;DHT22;3210;48.708;9.030;2023-02-26T03:49:04;-2.20;1.00
6355;DHT22;3210;48.708;9.030;2023-02-26T03:51:32;-2.20;1.00
6355;DHT22;3210;48.708;9.030;2023-02-26T03:54:05;-2.10;1.00
6355;DHT22;3210;48.708;9.030;2023-02-26T03:56:36;-2.20;1.00
6355;DHT22;3210;48.708;9.030;2023-02-26T03:59:04;-2.20;1.00
6355;DHT22;3210;48.708;9.030;2023-02-26T04:01:36;-2.20;1.00
6355;DHT22;3210;48.708;9.030;2023-02-26T04:04:07;-2.30;1.00
6355;DHT22;3210;48.708;9.030;2023-02-26T04:06:35;-2.40;1.00
6355;DHT22;3210;48.708;9.030;2023-02-26T04:09:03;-2.40;1.00
6355;DHT22;3210;48.708;9.030;2023-02-26T04:11:30;-2.50;1.00
6355;DHT22;3210;48.708;9.030;2023-02-26T04:13:58;-2.60;1.00
6355;DHT22;3210;48.708;9.030;2023-02-26T04:16:25;-2.60;1.00
6355;DHT22;3210;48.708;9.030;2023-02-26T04:18:52;-2.60;1.00
6355;DHT22;3210;48.708;9.030;2023-02-26T04:21:21;-2.60;1.50
6355;DHT22;3210;48.708;9.030;2023-02-26T04:23:48;-2.50;3.20
6355;DHT22;3210;48.708;9.030;2023-02-26T04:26:15;-2.50;4.10
6355;DHT22;3210;48.708;9.030;2023-02-26T04:28:41;-2.50;3.70
6355;DHT22;3210;48.708;9.030;2023-02-26T04:31:08;-2.50;4.90
6355;DHT22;3210;48.708;9.030;2023-02-26T04:33:36;-2.50;5.00
6355;DHT22;3210;48.708;9.030;2023-02-26T04:36:03;-2.50;3.90
6355;DHT22;3210;48.708;9.030;2023-02-26T04:38:31;-2.60;16.30
6355;DHT22;3210;48.708;9.030;2023-02-26T04:40:58;-2.70;2.00
6355;DHT22;3210;48.708;9.030;2023-02-26T04:43:25;-2.70;4.90
6355;DHT22;3210;48.708;9.030;2023-02-26T04:45:52;-2.70;3.70
6355;DHT22;3210;48.708;9.030;2023-02-26T04:48:19;-2.70;3.50
6355;DHT22;3210;48.708;9.030;2023-02-26T04:50:46;-2.80;2.00
6355;DHT22;3210;48.708;9.030;2023-02-26T04:53:12;-2.90;4.00
6355;DHT22;3210;48.708;9.030;2023-02-26T04:55:40;-2.90;4.70
6355;DHT22;3210;48.708;9.030;2023-02-26T04:58:07;-2.90;6.20
6355;DHT22;3210;48.708;9.030;2023-02-26T05:00:34;-3.00;6.40
6355;DHT22;3210;48.708;9.030;2023-02-26T05:03:01;-3.00;8.80
6355;DHT22;3210;48.708;9.030;2023-02-26T05:05:28;-3.00;9.80
6355;DHT22;3210;48.708;9.030;2023-02-26T05:07:55;-3.00;12.30
6355;DHT22;3210;48.708;9.030;2023-02-26T05:10:21;-2.90;15.10
6355;DHT22;3210;48.708;9.030;2023-02-26T05:12:49;-2.90;11.90
6355;DHT22;3210;48.708;9.030;2023-02-26T05:15:16;-2.80;9.30
6355;DHT22;3210;48.708;9.030;2023-02-26T05:17:43;-2.90;7.20
6355;DHT22;3210;48.708;9.030;2023-02-26T05:20:10;-2.80;9.30
6355;DHT22;3210;48.708;9.030;2023-02-26T05:22:40;-2.90;11.30
6355;DHT22;3210;48.708;9.030;2023-02-26T05:25:08;-2.80;13.70
6355;DHT22;3210;48.708;9.030;2023-02-26T05:27:35;-2.80;14.00
6355;DHT22;3210;48.708;9.030;2023-02-26T05:30:04;-2.80;14.40
6355;DHT22;3210;48.708;9.030;2023-02-26T05:32:31;-2.50;10.70
6355;DHT22;3210;48.708;9.030;2023-02-26T05:34:58;-2.40;7.60
6355;DHT22;3210;48.708;9.030;2023-02-26T05:37:25;-2.60;6.60
6355;DHT22;3210;48.708;9.030;2023-02-26T05:39:51;-2.70;6.60
6355;DHT22;3210;48.708;9.030;2023-02-26T05:42:18;-2.80;5.90
6355;DHT22;3210;48.708;9.030;2023-02-26T05:44:45;-2.90;7.80
6355;DHT22;3210;48.708;9.030;2023-02-26T05:47:13;-3.00;10.50
6355;DHT22;3210;48.708;9.030;2023-02-26T05:49:39;-3.00;11.30
6355;DHT22;3210;48.708;9.030;2023-02-26T05:52:06;-3.10;9.70
6355;DHT22;3210;48.708;9.030;2023-02-26T05:54:33;-3.00;12.60
6355;DHT22;3210;48.708;9.030;2023-02-26T05:56:59;-3.00;10.10
6355;DHT22;3210;48.708;9.030;2023-02-26T05:59:26;-3.00;11.70
6355;DHT22;3210;48.708;9.030;2023-02-26T06:01:53;-3.00;13.50
6355;DHT22;3210;48.708;9.030;2023-02-26T06:04:22;-2.90;15.70
6355;DHT22;3210;48.708;9.030;2023-02-26T06:06:49;-3.10;12.50
6355;DHT22;3210;48.708;9.030;2023-02-26T06:09:16;-3.10;15.20
6355;DHT22;3210;48.708;9.030;2023-02-26T06:11:42;-3.10;16.10
6355;DHT22;3210;48.708;9.030;2023-02-26T06:14:09;-3.20;12.70
6355;DHT22;3210;48.708;9.030;2023-02-26T06:16:36;-3.20;14.50
6355;DHT22;3210;48.708;9.030;2023-02-26T06:19:02;-3.20;17.70
6355;DHT22;3210;48.708;9.030;2023-02-26T06:21:30;-3.20;16.40
6355;DHT22;3210;48.708;9.030;2023-02-26T06:23:57;-3.10;19.30
6355;DHT22;3210;48.708;9.030;2023-02-26T06:26:24;-3.10;18.00
6355;DHT22;3210;48.708;9.030;2023-02-26T06:28:51;-3.30;15.60
6355;DHT22;3210;48.708;9.030;2023-02-26T06:31:17;-3.20;18.40
6355;DHT22;3210;48.708;9.030;2023-02-26T06:33:44;-3.30;21.30
6355;DHT22;3210;48.708;9.030;2023-02-26T06:36:11;-3.30;23.50
6355;DHT22;3210;48.708;9.030;2023-02-26T06:38:39;-3.20;28.90
6355;DHT22;3210;48.708;9.030;2023-02-26T06:41:06;-3.20;24.90
6355;DHT22;3210;48.708;9.030;2023-02-26T06:43:33;-3.20;23.70
6355;DHT22;3210;48.708;9.030;2023-02-26T06:46:00;-3.20;26.00
6355;DHT22;3210;48.708;9.030;2023-02-26T06:48:27;-3.20;24.80
6355;DHT22;3210;48.708;9.030;2023-02-26T06:50:54;-3.30;25.10
6355;DHT22;3210;48.708;9.030;2023-02-26T06:53:21;-3.30;29.60
6355;DHT22;3210;48.708;9.030;2023-02-26T06:55:51;-3.30;27.00
6355;DHT22;3210;48.708;9.030;2023-02-26T06:58:18;-3.30;28.70
6355;DHT22;3210;48.708;9.030;2023-02-26T07:00:45;-3.30;29.40
6355;DHT22;3210;48.708;9.030;2023-02-26T07:03:15;-3.20;47.40
6355;DHT22;3210;48.708;9.030;2023-02-26T07:05:44;-3.10;27.90
6355;DHT22;3210;48.708;9.030;2023-02-26T07:08:12;-3.10;27.20
6355;DHT22;3210;48.708;9.030;2023-02-26T07:10:39;-3.00;29.20
6355;DHT22;3210;48.708;9.030;2023-02-26T07:13:08;-3.20;27.30
6355;DHT22;3210;48.708;9.030;2023-02-26T07:15:35;-3.20;31.10
6355;DHT22;3210;48.708;9.030;2023-02-26T07:18:01;-3.20;31.30
6355;DHT22;3210;48.708;9.030;2023-02-26T07:20:28;-3.10;29.00
6355;DHT22;3210;48.708;9.030;2023-02-26T07:22:55;-3.10;27.90
6355;DHT22;3210;48.708;9.030;2023-02-26T07:25:22;-3.10;28.20
6355;DHT22;3210;48.708;9.030;2023-02-26T07:27:49;-3.10;28.90
6355;DHT22;3210;48.708;9.030;2023-02-26T07:30:18;-3.00;30.60
6355;DHT22;3210;48.708;9.030;2023-02-26T07:32:45;-2.80;33.90
6355;DHT22;3210;48.708;9.030;2023-02-26T07:35:11;-2.80;46.30
6355;DHT22;3210;48.708;9.030;2023-02-26T07:37:38;-2.70;29.60
6355;DHT22;3210;48.708;9.030;2023-02-26T07:40:06;-2.70;24.60
6355;DHT22;3210;48.708;9.030;2023-02-26T07:42:33;-2.70;40.10
6355;DHT22;3210;48.708;9.030;2023-02-26T07:44:59;-2.50;27.90
6355;DHT22;3210;48.708;9.030;2023-02-26T07:47:28;-2.50;24.80
6355;DHT22;3210;48.708;9.030;2023-02-26T07:49:55;-2.50;22.60
6355;DHT22;3210;48.708;9.030;2023-02-26T07:52:21;-2.50;23.10
6355;DHT22;3210;48.708;9.030;2023-02-26T07:54:48;-2.50;23.60
6355;DHT22;3210;48.708;9.030;2023-02-26T07:57:15;-2.60;20.20
6355;DHT22;3210;48.708;9.030;2023-02-26T07:59:42;-2.50;20.00
6355;DHT22;3210;48.708;9.030;2023-02-26T08:02:09;-2.40;38.40
6355;DHT22;3210;48.708;9.030;2023-02-26T08:04:38;-2.20;19.40
6355;DHT22;3210;48.708;9.030;2023-02-26T08:07:05;-2.20;17.40
6355;DHT22;3210;48.708;9.030;2023-02-26T08:09:34;-2.10;15.10
6355;DHT22;3210;48.708;9.030;2023-02-26T08:12:01;-2.20;14.80
6355;DHT22;3210;48.708;9.030;2023-02-26T08:14:28;-2.00;15.60
6355;DHT22;3210;48.708;9.030;2023-02-26T08:16:55;-1.90;18.40
6355;DHT22;3210;48.708;9.030;2023-02-26T08:19:21;-2.10;12.50
6355;DHT22;3210;48.708;9.030;2023-02-26T08:21:50;-2.20;14.40
6355;DHT22;3210;48.708;9.030;2023-02-26T08:24:16;-2.30;16.40
6355;DHT22;3210;48.708;9.030;2023-02-26T08:26:43;-2.30;19.10
6355;DHT22;3210;48.708;9.030;2023-02-26T08:29:10;-2.30;25.60
6355;DHT22;3210;48.708;9.030;2023-02-26T08:31:37;-2.30;31.00
6355;DHT22;3210;48.708;9.030;2023-02-26T08:34:04;-2.20;34.70
6355;DHT22;3210;48.708;9.030;2023-02-26T08:36:31;-2.10;30.40
6355;DHT22;3210;48.708;9.030;2023-02-26T08:38:59;-2.10;29.50
6355;DHT22;3210;48.708;9.030;2023-02-26T08:41:26;-2.00;29.60
6355;DHT22;3210;48.708;9.030;2023-02-26T08:43:55;-1.90;29.60
6355;DHT22;3210;48.708;9.030;2023-02-26T08:46:21;-1.90;24.60
6355;DHT22;3210;48.708;9.030;2023-02-26T08:48:48;-2.00;19.60
6355;DHT22;3210;48.708;9.030;2023-02-26T08:51:15;-2.30;20.60
6355;DHT22;3210;48.708;9.030;2023-02-26T08:53:43;-2.30;23.70
6355;DHT22;3210;48.708;9.030;2023-02-26T08:56:13;-2.10;23.70
6355;DHT22;3210;48.708;9.030;2023-02-26T08:58:39;-2.00;21.20
6355;DHT22;3210;48.708;9.030;2023-02-26T09:01:06;-2.00;18.70
6355;DHT22;3210;48.708;9.030;2023-02-26T09:03:33;-2.00;17.80
6355;DHT22;3210;48.708;9.030;2023-02-26T09:06:00;-2.10;16.30
6355;DHT22;3210;48.708;9.030;2023-02-26T09:08:27;-2.10;22.80
6355;DHT22;3210;48.708;9.030;2023-02-26T09:10:58;-2.10;20.40
6355;DHT22;3210;48.708;9.030;2023-02-26T09:13:27;-2.10;18.20
6355;DHT22;3210;48.708;9.030;2023-02-26T09:15:53;-2.10;16.20
6355;DHT22;3210;48.708;9.030;2023-02-26T09:18:20;-2.10;13.60
6355;DHT22;3210;48.708;9.030;2023-02-26T09:20:47;-2.00;14.70
6355;DHT22;3210;48.708;9.030;2023-02-26T09:23:14;-1.90;16.20
6355;DHT22;3210;48.708;9.030;2023-02-26T09:25:40;-2.10;13.50
6355;DHT22;3210;48.708;9.030;2023-02-26T09:28:07;-2.00;15.80
6355;DHT22;3210;48.708;9.030;2023-02-26T09:30:35;-1.90;15.60
6355;DHT22;3210;48.708;9.030;2023-02-26T09:33:02;-1.70;18.70
6355;DHT22;3210;48.708;9.030;2023-02-26T09:35:29;-1.60;22.40
6355;DHT22;3210;48.708;9.030;2023-02-26T09:37:55;-1.50;15.90
6355;DHT22;3210;48.708;9.030;2023-02-26T09:40:35;-1.60;14.70
6355;DHT22;3210;48.708;9.030;2023-02-26T09:43:14;-1.50;13.50
6355;DHT22;3210;48.708;9.030;2023-02-26T09:45:47;-1.60;14.80
6355;DHT22;3210;48.708;9.030;2023-02-26T09:48:17;-1.70;14.40
6355;DHT22;3210;48.708;9.030;2023-02-26T09:50:47;-1.70;14.60
6355;DHT22;3210;48.708;9.030;2023-02-26T09:53:17;-1.70;18.40
6355;DHT22;3210;48.708;9.030;2023-02-26T09:55:48;-1.70;19.10
6355;DHT22;3210;48.708;9.030;2023-02-26T09:58:19;-1.70;18.30
6355;DHT22;3210;48.708;9.030;2023-02-26T10:00:54;-1.70;18.20
6355;DHT22;3210;48.708;9.030;2023-02-26T10:03:27;-1.60;19.90
6355;DHT22;3210;48.708;9.030;2023-02-26T10:06:14;-1.60;19.60
6355;DHT22;3210;48.708;9.030;2023-02-26T10:08:49;-1.60;17.30
6355;DHT22;3210;48.708;9.030;2023-02-26T10:11:24;-1.60;17.10
6355;DHT22;3210;48.708;9.030;2023-02-26T10:13:56;-1.60;20.30
6355;DHT22;3210;48.708;9.030;2023-02-26T10:16:28;-1.70;19.80
6355;DHT22;3210;48.708;9.030;2023-02-26T10:18:58;-1.60;23.30
6355;DHT22;3210;48.708;9.030;2023-02-26T10:21:29;-1.60;23.80
6355;DHT22;3210;48.708;9.030;2023-02-26T10:24:01;-1.70;20.60
6355;DHT22;3210;48.708;9.030;2023-02-26T10:26:36;-1.80;21.50
6355;DHT22;3210;48.708;9.030;2023-02-26T10:29:13;-1.70;25.30
6355;DHT22;3210;48.708;9.030;2023-02-26T10:31:54;-1.70;25.30
6355;DHT22;3210;48.708;9.030;2023-02-26T10:34:26;-1.60;26.50
6355;DHT22;3210;48.708;9.030;2023-02-26T10:37:02;-1.40;28.60
6355;DHT22;3210;48.708;9.030;2023-02-26T10:39:33;-1.70;21.90
6355;DHT22;3210;48.708;9.030;2023-02-26T10:42:10;-1.80;23.10
6355;DHT22;3210;48.708;9.030;2023-02-26T10:44:45;-1.70;32.30
6355;DHT22;3210;48.708;9.030;2023-02-26T10:47:20;-1.60;30.00
6355;DHT22;3210;48.708;9.030;2023-02-26T10:49:54;-1.50;27.30
6355;DHT22;3210;48.708;9.030;2023-02-26T10:52:23;-1.40;29.40
6355;DHT22;3210;48.708;9.030;2023-02-26T10:57:45;-1.40;40.80
6355;DHT22;3210;48.708;9.030;2023-02-26T11:00:17;-1.40;26.30
6355;DHT22;3210;48.708;9.030;2023-02-26T11:02:47;-1.60;26.30
6355;DHT22;3210;48.708;9.030;2023-02-26T11:05:18;-1.60;24.90
6355;DHT22;3210;48.708;9.030;2023-02-26T11:07:49;-1.50;29.20
6355;DHT22;3210;48.708;9.030;2023-02-26T11:10:20;-1.20;36.50
6355;DHT22;3210;48.708;9.030;2023-02-26T11:12:48;-1.40;20.50
6355;DHT22;3210;48.708;9.030;2023-02-26T11:15:18;-1.20;26.90
6355;DHT22;3210;48.708;9.030;2023-02-26T11:17:47;-0.90;27.40
6355;DHT22;3210;48.708;9.030;2023-02-26T11:20:23;-0.90;21.30
6355;DHT22;3210;48.708;9.030;2023-02-26T11:22:53;-1.00;20.20
6355;DHT22;3210;48.708;9.030;2023-02-26T11:25:23;-1.00;17.60
6355;DHT22;3210;48.708;9.030;2023-02-26T11:27:56;-1.00;28.90
6355;DHT22;3210;48.708;9.030;2023-02-26T11:30:25;-1.10;15.90
6355;DHT22;3210;48.708;9.030;2023-02-26T11:32:57;-1.10;18.10
6355;DHT22;3210;48.708;9.030;2023-02-26T11:35:25;-0.80;17.70
6355;DHT22;3210;48.708;9.030;2023-02-26T11:37:56;-0.60;18.90
6355;DHT22;3210;48.708;9.030;2023-02-26T11:40:31;-0.50;26.30
6355;DHT22;3210;48.708;9.030;2023-02-26T11:43:04;-0.80;11.60
6355;DHT22;3210;48.708;9.030;2023-02-26T11:45:34;-0.90;11.50
6355;DHT22;3210;48.708;9.030;2023-02-26T11:48:04;-0.80;15.10
6355;DHT22;3210;48.708;9.030;2023-02-26T11:50:37;-0.80;11.50
6355;DHT22;3210;48.708;9.030;2023-02-26T11:53:14;-0.70;11.10
6355;DHT22;3210;48.708;9.030;2023-02-26T11:55:44;-0.70;25.20
6355;DHT22;3210;48.708;9.030;2023-02-26T11:58:17;-0.90;11.60
6355;DHT22;3210;48.708;9.030;2023-02-26T12:00:44;-0.70;12.80
6355;DHT22;3210;48.708;9.030;2023-02-26T12:03:17;-0.60;14.70
6355;DHT22;3210;48.708;9.030;2023-02-26T12:05:45;-0.60;7.20
6355;DHT22;3210;48.708;9.030;2023-02-26T12:08:17;-0.50;7.20
6355;DHT22;3210;48.708;9.030;2023-02-26T12:10:54;-0.60;7.10
6355;DHT22;3210;48.708;9.030;2023-02-26T12:13:28;-0.50;6.70
6355;DHT22;3210;48.708;9.030;2023-02-26T12:16:01;-0.50;2.80
6355;DHT22;3210;48.708;9.030;2023-02-26T12:18:44;-0.60;2.80
6355;DHT22;3210;48.708;9.030;2023-02-26T12:21:28;-0.50;3.50
6355;DHT22;3210;48.708;9.030;2023-02-26T12:27:02;-0.70;11.90
6355;DHT22;3210;48.708;9.030;2023-02-26T12:29:46;-0.50;1.00
6355;DHT22;3210;48.708;9.030;2023-02-26T12:32:26;-0.60;4.70
6355;DHT22;3210;48.708;9.030;2023-02-26T12:35:23;-0.50;7.40
6355;DHT22;3210;48.708;9.030;2023-02-26T12:38:05;-0.30;7.90
6355;DHT22;3210;48.708;9.030;2023-02-26T12:40:59;-0.30;17.80
6355;DHT22;3210;48.708;9.030;2023-02-26T12:43:33;-0.40;4.40
6355;DHT22;3210;48.708;9.030;2023-02-26T12:46:12;-0.30;5.80
6355;DHT22;3210;48.708;9.030;2023-02-26T12:49:11;-0.40;2.90
6355;DHT22;3210;48.708;9.030;2023-02-26T12:51:53;-0.50;15.50
6355;DHT22;3210;48.708;9.030;2023-02-26T12:54:46;-0.60;3.40
6355;DHT22;3210;48.708;9.030;2023-02-26T12:57:43;-0.60;3.60
6355;DHT22;3210;48.708;9.030;2023-02-26T13:00:21;-0.60;2.80
6355;DHT22;3210;48.708;9.030;2023-02-26T13:06:19;-0.50;2.50
6355;DHT22;3210;48.708;9.030;2023-02-26T13:08:56;-0.30;1.70
6355;DHT22;3210;48.708;9.030;2023-02-26T13:11:39;-0.10;3.30
6355;DHT22;3210;48.708;9.030;2023-02-26T13:14:21;-0.10;2.20
6355;DHT22;3210;48.708;9.030;2023-02-26T13:16:55;-0.20;1.00
6355;DHT22;3210;48.708;9.030;2023-02-26T13:19:32;-0.20;1.00
6355;DHT22;3210;48.708;9.030;2023-02-26T13:22:09;-0.10;2.90
6355;DHT22;3210;48.708;9.030;2023-02-26T13:24:41;0.00;4.30
6355;DHT22;3210;48.708;9.030;2023-02-26T13:27:11;0.00;1.00
6355;DHT22;3210;48.708;9.030;2023-02-26T13:29:42;-0.20;1.00
6355;DHT22;3210;48.708;9.030;2023-02-26T13:32:16;-0.30;1.00
6355;DHT22;3210;48.708;9.030;2023-02-26T13:34:49;-0.20;1.00
6355;DHT22;3210;48.708;9.030;2023-02-26T13:37:23;-0.10;1.00
6355;DHT22;3210;48.708;9.030;2023-02-26T13:40:02;-0.10;1.00
6355;DHT22;3210;48.708;9.030;2023-02-26T13:42:37;0.10;1.00
6355;DHT22;3210;48.708;9.030;2023-02-26T13:45:22;0.00;2.00
6355;DHT22;3210;48.708;9.030;2023-02-26T13:47:57;0.00;1.00
6355;DHT22;3210;48.708;9.030;2023-02-26T13:50:33;0.00;1.00
6355;DHT22;3210;48.708;9.030;2023-02-26T13:53:45;-0.10;1.00
6355;DHT22;3210;48.708;9.030;2023-02-26T13:56:16;0.00;1.00
6355;DHT22;3210;48.708;9.030;2023-02-26T13:58:48;0.00;1.00
6355;DHT22;3210;48.708;9.030;2023-02-26T14:01:17;0.00;1.00
6355;DHT22;3210;48.708;9.030;2023-02-26T14:03:47;0.10;1.00
6355;DHT22;3210;48.708;9.030;2023-02-26T14:06:24;0.20;1.00
6355;DHT22;3210;48.708;9.030;2023-02-26T14:09:02;0.20;1.00
6355;DHT22;3210;48.708;9.030;2023-02-26T14:11:43;0.20;1.00
6355;DHT22;3210;48.708;9.030;2023-02-26T14:14:16;0.30;1.00
6355;DHT22;3210;48.708;9.030;2023-02-26T14:16:52;0.30;1.00
6355;DHT22;3210;48.708;9.030;2023-02-26T14:19:26;0.50;1.00
6355;DHT22;3210;48.708;9.030;2023-02-26T14:21:53;0.70;1.00
6355;DHT22;3210;48.708;9.030;2023-02-26T14:24:29;0.70;1.00
6355;DHT22;3210;48.708;9.030;2023-02-26T14:27:33;0.70;1.00
6355;DHT22;3210;48.708;9.030;2023-02-26T14:30:13;0.60;1.00
6355;DHT22;3210;48.708;9.030;2023-02-26T14:32:46;0.70;1.00
6355;DHT22;3210;48.708;9.030;2023-02-26T14:35:16;0.50;1.00
6355;DHT22;3210;48.708;9.030;2023-02-26T14:37:48;0.50;1.00
6355;DHT22;3210;48.708;9.030;2023-02-26T14:40:18;0.30;1.00
6355;DHT22;3210;48.708;9.030;2023-02-26T14:42:50;0.30;1.00
6355;DHT22;3210;48.708;9.030;2023-02-26T14:45:28;0.30;1.00
6355;DHT22;3210;48.708;9.030;2023-02-26T14:47:57;0.40;1.00
6355;DHT22;3210;48.708;9.030;2023-02-26T14:50:30;0.60;1.00
6355;DHT22;3210;48.708;9.030;2023-02-26T14:53:19;0.50;1.00
6355;DHT22;3210;48.708;9.030;2023-02-26T14:56:06;0.60;1.00
6355;DHT22;3210;48.708;9.030;2023-02-26T14:59:00;0.50;1.00
6355;DHT22;3210;48.708;9.030;2023-02-26T15:01:47;0.30;1.00
6355;DHT22;3210;48.708;9.030;2023-02-26T15:04:55;0.30;1.00
6355;DHT22;3210;48.708;9.030;2023-02-26T15:07:35;0.30;1.00
6355;DHT22;3210;48.708;9.030;2023-02-26T15:10:17;0.40;1.00
6355;DHT22;3210;48.708;9.030;2023-02-26T15:15:44;0.60;1.00
6355;DHT22;3210;48.708;9.030;2023-02-26T15:18:26;0.80;1.00
6355;DHT22;3210;48.708;9.030;2023-02-26T15:21:02;0.90;1.00
6355;DHT22;3210;48.708;9.030;2023-02-26T15:23:38;0.90;1.00
6355;DHT22;3210;48.708;9.030;2023-02-26T15:26:07;0.90;1.00
6355;DHT22;3210;48.708;9.030;2023-02-26T15:28:38;0.70;1.00
6355;DHT22;3210;48.708;9.030;2023-02-26T15:31:09;0.70;1.00
6355;DHT22;3210;48.708;9.030;2023-02-26T15:33:37;0.70;1.00
6355;DHT22;3210;48.708;9.030;2023-02-26T15:36:06;0.60;1.00
6355;DHT22;3210;48.708;9.030;2023-02-26T15:38:46;0.50;1.00
6355;DHT22;3210;48.708;9.030;2023-02-26T15:41:13;0.50;1.00
6355;DHT22;3210;48.708;9.030;2023-02-26T15:43:45;0.50;1.00
6355;DHT22;3210;48.708;9.030;2023-02-26T15:46:15;0.40;1.00
6355;DHT22;3210;48.708;9.030;2023-02-26T15:48:42;0.50;1.00
6355;DHT22;3210;48.708;9.030;2023-02-26T15:51:11;0.40;1.00
6355;DHT22;3210;48.708;9.030;2023-02-26T15:53:41;0.50;1.00
6355;DHT22;3210;48.708;9.030;2023-02-26T15:56:11;0.40;1.00
6355;DHT22;3210;48.708;9.030;2023-02-26T15:58:43;0.20;1.00
6355;DHT22;3210;48.708;9.030;2023-02-26T16:01:16;0.10;1.00
6355;DHT22;3210;48.708;9.030;2023-02-26T16:03:44;0.00;1.00
6355;DHT22;3210;48.708;9.030;2023-02-26T16:06:12;0.10;1.00
6355;DHT22;3210;48.708;9.030;2023-02-26T16:08:41;0.20;1.00
6355;DHT22;3210;48.708;9.030;2023-02-26T16:11:09;0.20;1.00
6355;DHT22;3210;48.708;9.030;2023-02-26T16:13:38;0.20;1.00
6355;DHT22;3210;48.708;9.030;2023-02-26T16:16:07;0.30;1.00
6355;DHT22;3210;48.708;9.030;2023-02-26T16:18:39;0.40;1.00
6355;DHT22;3210;48.708;9.030;2023-02-26T16:21:08;0.20;1.00
6355;DHT22;3210;48.708;9.030;2023-02-26T16:23:42;0.20;1.00
6355;DHT22;3210;48.708;9.030;2023-02-26T16:26:14;0.20;1.00
6355;DHT22;3210;48.708;9.030;2023-02-26T16:28:43;0.10;1.00
6355;DHT22;3210;48.708;9.030;2023-02-26T16:31:16;0.10;1.00
6355;DHT22;3210;48.708;9.030;2023-02-26T16:33:53;0.10;1.00
6355;DHT22;3210;48.708;9.030;2023-02-26T16:36:20;0.00;1.00
6355;DHT22;3210;48.708;9.030;2023-02-26T16:38:57;0.10;1.00
6355;DHT22;3210;48.708;9.030;2023-02-26T16:41:28;0.00;1.00
6355;DHT22;3210;48.708;9.030;2023-02-26T16:43:56;0.00;1.00
6355;DHT22;3210;48.708;9.030;2023-02-26T16:46:33;0.00;1.00
6355;DHT22;3210;48.708;9.030;2023-02-26T16:49:07;0.00;1.00
6355;DHT22;3210;48.708;9.030;2023-02-26T16:51:36;0.00;1.00
6355;DHT22;3210;48.708;9.030;2023-02-26T16:54:06;0.00;1.00